Northwood, IA (50459)

3:00 AM CDT on August 24, 2016 (GMT -0500)
KMNGLENV5 | | Change Station
Active Advisory: Flash Flood Warning Active Notice: Local Storm Report

Elev 1320 ft 43.54 °N, 93.24 °W | Updated 18 seconds ago

Mostly Cloudy
Mostly Cloudy
67.8 °F
Feels Like 67.8 °F
N
13.0
Wind Variable Wind from WSW
Gusts 14.5 mph

Today
High -- | Low -- °F
--% Chance of Precip.
Yesterday
High -- | Low -- °F
Precip. -- in
Pressure 29.84 in
Visibility 10.0 miles
Clouds Mostly Cloudy 1900 ft
Dew Point 68 °F
Humidity 99%
Rainfall 0.05 in
Snow Depth Not available.
6:28 AM 8:00 PM
Waning Gibbous, 59% visible
METAR KAEL 240754Z AUTO 17003KT 10SM BKN019 20/19 A2984 RMK AO2 LTG DSNT NE AND E
Pressure 29.84 in
Visibility 10.0 miles
Clouds Mostly Cloudy 1900 ft
Dew Point 68 °F
Humidity 99%
Rainfall 0.05 in
Snow Depth Not available.
6:28 AM 8:00 PM
Waning Gibbous, 59% visible
METAR KAEL 240754Z AUTO 17003KT 10SM BKN019 20/19 A2984 RMK AO2 LTG DSNT NE AND E

10-Day Weather Forecast

Almanac

Astronomy

Aug. 24, 2016 Rise Set
Actual Time
Civil Twilight
Nautical Twilight
Astronomical Twilight
Moon
Length of Visible Light
Length of Day
Tomorrow will be .
, % of the Moon is Illuminated

Today's Extremes

State Highs State Lows

Community

WunderPhotos

Upload Photos

1,934,554 photos uploaded!

WunderBlog® & News

Nearby

Air Quality

  Air Quality AQ Index Pollutant
Not available.

Snow Depth

Station Depth Elevation

Earthquake Activity

City Distance Mag. Time & Date
Minimum magnitude displayed is 2.5.

Coastal Water Temperatures

Place Temperature

Stations

Nearby Weather Stations

Station Location Temp. Windchill Dew Point Humidity Wind Precip. Elev Updated Type
                   

Watches & Warnings

Flash Flood Warning
Issued: 1:26 AM CDT Aug. 24, 2016 – National Weather Service

... The Flash Flood Warning remains in effect until 630 am CDT for
eastern Winnebago and Worth counties...

At 125 am CDT... Doppler radar indicated thunderstorms producing heavy
rain across the warned area. Up to three inches of rain have already
fallen. Flash flooding is expected to begin shortly.

Some locations that will experience flooding include...
Forest City... Northwood... Lake Mills... Manly... Emmons... Rice Lake...
Fertile... Leland... Kensett... Grafton... Hanlontown... Joice...
Scarville... Bolan... Lake Mills Municipal Airport... Rice Lake State
Park... Hogsback wildlife area and Northwood Municipal.

Precautionary/preparedness actions...

Turn around... don't drown when encountering flooded roads. Most flood
deaths occur in vehicles.

Be especially cautious at night when it is harder to recognize the
dangers of flooding.


Lat... Lon 4326 9302 4326 9360 4330 9368 4350 9375
      4350 9303


Podrazik